createdAt,value
2022-09-20T00:00:20.914Z,100885.91
2022-09-20T00:03:22.618Z,100895.00
2022-09-20T00:06:28.081Z,100886.53
2022-09-20T00:09:32.131Z,100886.69
2022-09-20T00:12:34.136Z,100888.75
2022-09-20T00:15:41.532Z,100888.66
2022-09-20T00:18:43.794Z,100896.13
2022-09-20T00:21:48.147Z,100894.50
2022-09-20T00:24:52.066Z,100892.00
2022-09-20T00:28:04.110Z,100895.19
2022-09-20T00:31:06.695Z,100904.19
2022-09-20T00:34:28.531Z,100900.75
2022-09-20T00:37:41.893Z,100897.31
2022-09-20T00:40:44.861Z,100896.44
2022-09-20T00:43:47.496Z,100894.16
2022-09-20T00:46:49.226Z,100896.28
2022-09-20T00:49:53.517Z,100893.13
2022-09-20T00:53:00.810Z,100892.47
2022-09-20T00:56:09.848Z,100888.38
2022-09-20T00:59:32.207Z,100896.28
2022-09-20T01:02:38.139Z,100895.53
2022-09-20T01:05:40.817Z,100901.47
2022-09-20T01:08:47.696Z,100896.47
2022-09-20T01:11:52.054Z,100896.47
2022-09-20T01:14:55.317Z,100899.16
2022-09-20T01:17:59.454Z,100891.31
2022-09-20T01:21:02.157Z,100892.94
2022-09-20T01:24:27.174Z,100903.94
2022-09-20T01:27:36.498Z,100905.78
2022-09-20T01:30:49.243Z,100900.53
2022-09-20T01:34:14.800Z,100909.31
2022-09-20T01:37:26.563Z,100908.44
2022-09-20T01:40:41.195Z,100907.59
2022-09-20T01:43:52.082Z,100915.53
2022-09-20T01:47:06.985Z,100901.38
2022-09-20T01:50:25.119Z,100904.84
2022-09-20T01:54:08.639Z,100898.91
2022-09-20T01:57:35.558Z,100914.09
2022-09-20T02:01:11.497Z,100905.47
2022-09-20T02:04:34.337Z,100907.50
2022-09-20T02:07:35.958Z,100912.84
2022-09-20T02:10:49.845Z,100907.56
2022-09-20T02:13:57.941Z,100913.91
2022-09-20T02:17:12.589Z,100910.16
2022-09-20T02:20:32.705Z,100912.75
2022-09-20T02:23:39.157Z,100916.38
2022-09-20T02:27:07.829Z,100916.38
2022-09-20T02:30:21.052Z,100915.81
2022-09-20T02:34:00.261Z,100920.38
2022-09-20T02:37:35.024Z,100920.56
2022-09-20T02:41:04.099Z,100923.38
2022-09-20T02:44:24.983Z,100924.22
2022-09-20T02:47:40.050Z,100919.97
2022-09-20T02:51:10.145Z,100921.19
2022-09-20T02:54:27.039Z,100923.88
2022-09-20T02:57:59.884Z,100924.53
2022-09-20T03:01:10.730Z,100930.00
2022-09-20T03:04:20.733Z,100936.28
2022-09-20T03:07:30.965Z,100931.97
2022-09-20T03:10:43.645Z,100931.06
2022-09-20T03:14:23.158Z,100931.72
2022-09-20T03:17:43.216Z,100946.72
2022-09-20T03:21:17.315Z,100941.13
2022-09-20T03:24:51.245Z,100944.59
2022-09-20T03:27:58.721Z,100942.56
2022-09-20T03:31:12.567Z,100938.66
2022-09-20T03:34:49.905Z,100941.91
2022-09-20T03:38:03.847Z,100939.94
2022-09-20T03:41:42.466Z,100950.25
2022-09-20T03:44:59.275Z,100940.38
2022-09-20T03:48:23.977Z,100939.44
2022-09-20T03:51:47.538Z,100940.09
2022-09-20T03:55:06.204Z,100953.31
2022-09-20T03:58:16.807Z,100954.06
2022-09-20T04:01:38.787Z,100950.16
2022-09-20T04:05:00.541Z,100953.59
2022-09-20T04:08:08.128Z,100963.25
2022-09-20T04:11:31.291Z,100965.59
2022-09-20T04:15:07.196Z,100956.56
2022-09-20T04:18:22.569Z,100968.16
2022-09-20T04:21:55.016Z,100968.91
2022-09-20T04:25:13.366Z,100969.78
2022-09-20T04:28:21.418Z,100970.34
2022-09-20T04:31:26.012Z,100969.41
2022-09-20T04:34:57.432Z,100968.72
2022-09-20T04:38:06.123Z,100976.56
2022-09-20T04:41:51.295Z,100981.63
2022-09-20T04:45:08.297Z,100980.13
2022-09-20T04:48:39.444Z,100987.97
2022-09-20T04:52:07.112Z,100985.84
2022-09-20T04:55:14.006Z,100988.53
2022-09-20T04:58:47.091Z,100989.09
2022-09-20T05:02:16.642Z,100992.56
2022-09-20T05:05:31.502Z,100996.19
2022-09-20T05:08:59.072Z,100997.41
2022-09-20T05:12:25.386Z,101003.47
2022-09-20T05:15:38.482Z,101005.38
2022-09-20T05:18:59.463Z,101003.34
2022-09-20T05:22:13.710Z,101006.81
2022-09-20T05:25:52.138Z,101011.41
2022-09-20T05:29:02.368Z,101012.06
2022-09-20T05:32:33.351Z,101012.75
2022-09-20T05:35:48.044Z,101014.38
2022-09-20T05:39:03.570Z,101022.50
2022-09-20T05:42:29.266Z,101017.25
2022-09-20T05:45:49.075Z,101031.22
2022-09-20T05:48:56.754Z,101036.59
2022-09-20T05:52:26.542Z,101027.66
2022-09-20T05:55:34.126Z,101036.47
2022-09-20T05:58:54.162Z,101044.63
2022-09-20T06:02:11.092Z,101039.94
2022-09-20T06:05:39.821Z,101048.94
2022-09-20T06:09:12.191Z,101056.88
2022-09-20T06:12:20.006Z,101058.91
2022-09-20T06:15:44.910Z,101059.84
2022-09-20T06:18:57.450Z,101056.03
2022-09-20T06:22:08.650Z,101062.72
2022-09-20T06:25:20.342Z,101058.03
2022-09-20T06:28:38.937Z,101060.50
2022-09-20T06:31:40.612Z,101068.47
2022-09-20T06:34:42.297Z,101063.59
2022-09-20T06:38:12.252Z,101069.59
2022-09-20T06:41:32.739Z,101071.44
2022-09-20T06:44:43.010Z,101077.94
2022-09-20T06:47:46.838Z,101073.53
2022-09-20T06:50:48.482Z,101076.88
2022-09-20T06:54:17.578Z,101078.31
2022-09-20T06:57:24.441Z,101082.94
2022-09-20T07:00:26.244Z,101079.47
2022-09-20T07:03:27.906Z,101085.03
2022-09-20T07:06:29.719Z,101091.53
2022-09-20T07:09:31.674Z,101093.38
2022-09-20T07:12:35.070Z,101088.09
2022-09-20T07:15:37.062Z,101091.91
2022-09-20T07:18:38.806Z,101085.50
2022-09-20T07:21:55.764Z,101091.38
2022-09-20T07:24:58.974Z,101095.97
2022-09-20T07:28:05.370Z,101099.75
2022-09-20T07:31:07.052Z,101103.78
2022-09-20T07:34:12.264Z,101102.75
2022-09-20T07:37:14.047Z,101120.81
2022-09-20T07:40:16.519Z,101125.81
2022-09-20T07:43:19.362Z,101125.03
2022-09-20T07:46:22.316Z,101129.69
2022-09-20T07:49:26.065Z,101124.19
2022-09-20T07:52:36.660Z,101130.03
2022-09-20T07:55:38.260Z,101135.19
2022-09-20T07:58:40.307Z,101134.03
2022-09-20T08:02:14.534Z,101132.19
2022-09-20T08:05:16.263Z,101131.34
2022-09-20T08:08:19.192Z,101139.00
2022-09-20T08:11:27.853Z,101140.63
2022-09-20T08:14:30.396Z,101142.75
2022-09-20T08:22:34.884Z,101160.31
2022-09-20T08:48:52.255Z,101185.66
2022-09-20T08:52:03.129Z,101175.13
2022-09-20T08:55:16.899Z,101184.63
2022-09-20T08:58:19.199Z,101183.56
2022-09-20T09:01:24.461Z,101184.88
2022-09-20T09:04:35.610Z,101183.78
2022-09-20T09:07:37.199Z,101190.44
2022-09-20T09:10:43.107Z,101178.50
2022-09-20T09:14:30.873Z,101188.63
2022-09-20T09:17:32.528Z,101192.03
2022-09-20T09:20:43.357Z,101196.34
2022-09-20T09:24:03.340Z,101190.13
2022-09-20T09:27:19.594Z,101197.25
2022-09-20T09:30:43.401Z,101190.56
2022-09-20T09:33:45.879Z,101199.81
2022-09-20T09:36:47.525Z,101195.63
2022-09-20T09:40:13.171Z,101206.59
2022-09-20T09:43:23.345Z,101198.50
2022-09-20T09:46:27.426Z,101201.97
2022-09-20T09:49:34.075Z,101197.31
2022-09-20T09:52:36.362Z,101198.44
2022-09-20T09:55:53.084Z,101197.84
2022-09-20T09:59:07.926Z,101195.56
2022-09-20T10:02:13.134Z,101201.41
2022-09-20T10:05:28.414Z,101196.59
2022-09-20T10:08:29.889Z,101197.47
2022-09-20T10:11:49.644Z,101190.31
2022-09-20T10:15:10.336Z,101192.91
2022-09-20T10:18:42.821Z,101189.53
2022-09-20T10:21:51.048Z,101191.44
2022-09-20T10:25:03.284Z,101187.06
2022-09-20T10:28:04.818Z,101194.97
2022-09-20T10:31:25.968Z,101179.59
2022-09-20T10:34:52.069Z,101186.69
2022-09-20T10:38:13.351Z,101182.34
2022-09-20T10:41:39.626Z,101189.56
2022-09-20T10:45:00.962Z,101187.09
2022-09-20T10:48:10.002Z,101195.59
2022-09-20T10:51:44.467Z,101178.13
2022-09-20T10:54:54.863Z,101196.72
2022-09-20T10:58:00.217Z,101188.91
2022-09-20T11:01:07.923Z,101188.66
2022-09-20T11:04:18.604Z,101186.56
2022-09-20T11:07:46.536Z,101189.84
2022-09-20T11:11:17.038Z,101192.25
2022-09-20T11:14:23.345Z,101196.13
2022-09-20T11:17:31.863Z,101198.69
2022-09-20T11:20:47.302Z,101184.97
2022-09-20T11:24:00.536Z,101201.50
2022-09-20T11:27:13.431Z,101197.22
2022-09-20T11:30:20.832Z,101197.66
2022-09-20T11:33:41.194Z,101196.66
2022-09-20T11:36:57.657Z,101191.16
2022-09-20T11:40:17.498Z,101199.16
2022-09-20T11:43:19.877Z,101188.59
2022-09-20T11:46:31.202Z,101192.25
2022-09-20T11:49:54.186Z,101191.53
2022-09-20T11:53:14.011Z,101190.19
2022-09-20T11:56:22.499Z,101180.72
2022-09-20T11:59:34.793Z,101195.22
2022-09-20T12:02:52.541Z,101196.34
2022-09-20T12:06:00.929Z,101197.28
2022-09-20T12:09:30.340Z,101200.75
2022-09-20T12:12:35.775Z,101204.03
2022-09-20T12:15:39.778Z,101197.91
2022-09-20T12:19:00.795Z,101200.47
2022-09-20T12:22:05.190Z,101195.81
2022-09-20T12:25:36.711Z,101198.75
2022-09-20T12:28:41.116Z,101192.41
2022-09-20T12:31:48.453Z,101199.16
2022-09-20T12:34:50.063Z,101200.34
2022-09-20T12:37:51.760Z,101197.00
2022-09-20T12:41:08.409Z,101198.00
2022-09-20T12:44:42.171Z,101192.47
2022-09-20T12:47:53.610Z,101195.91
2022-09-20T12:51:21.922Z,101197.53
2022-09-20T12:54:23.726Z,101194.84
2022-09-20T12:57:35.537Z,101193.38
2022-09-20T13:00:45.154Z,101198.41
2022-09-20T13:03:49.021Z,101193.72
2022-09-20T13:06:51.101Z,101193.38
2022-09-20T13:09:54.258Z,101197.06
2022-09-20T13:13:04.494Z,101196.44
2022-09-20T13:16:07.225Z,101197.81
2022-09-20T13:19:29.221Z,101199.75
2022-09-20T13:22:41.968Z,101202.09
2022-09-20T13:25:43.828Z,101199.00
2022-09-20T13:28:55.645Z,101203.91
2022-09-20T13:32:15.584Z,101208.41
2022-09-20T13:35:24.560Z,101228.72
2022-09-20T13:38:30.161Z,101246.13
2022-09-20T13:41:32.538Z,101242.25
2022-09-20T13:44:35.092Z,101241.72
2022-09-20T13:47:43.503Z,101247.16
2022-09-20T13:50:48.046Z,101249.25
2022-09-20T13:53:51.814Z,101256.13
2022-09-20T13:56:57.043Z,101253.88
2022-09-20T13:59:58.806Z,101254.66
2022-09-20T14:03:00.623Z,101246.13
2022-09-20T14:06:09.953Z,101245.19
2022-09-20T14:09:21.880Z,101238.16
2022-09-20T14:12:25.250Z,101240.63
2022-09-20T14:15:33.145Z,101227.38
2022-09-20T14:18:37.257Z,101232.38
2022-09-20T14:21:38.921Z,101236.59
2022-09-20T14:24:40.513Z,101234.50
2022-09-20T14:27:42.337Z,101233.56
2022-09-20T14:30:46.607Z,101230.13
2022-09-20T14:33:55.092Z,101228.03
2022-09-20T14:37:09.590Z,101234.72
2022-09-20T14:40:20.075Z,101238.56
2022-09-20T14:43:26.297Z,101237.66
2022-09-20T14:46:35.851Z,101231.06
2022-09-20T14:49:42.946Z,101238.34
2022-09-20T14:52:45.352Z,101238.38
2022-09-20T14:56:08.212Z,101240.56
2022-09-20T14:59:13.970Z,101234.09
2022-09-20T15:02:16.194Z,101239.00
2022-09-20T15:05:25.995Z,101235.69
2022-09-20T15:08:27.989Z,101239.56
2022-09-20T15:11:29.944Z,101240.84
2022-09-20T15:14:37.008Z,101247.94
2022-09-20T15:17:39.543Z,101239.31
2022-09-20T15:20:41.079Z,101233.47
2022-09-20T15:23:42.672Z,101229.44
2022-09-20T15:26:45.674Z,101234.31
2022-09-20T15:29:47.325Z,101235.06
2022-09-20T15:32:49.029Z,101245.75
2022-09-20T15:35:50.833Z,101241.44
2022-09-20T15:38:53.784Z,101249.00
2022-09-20T15:41:55.367Z,101242.31
2022-09-20T15:44:56.906Z,101249.78
2022-09-20T15:47:58.486Z,101249.78
2022-09-20T15:51:06.741Z,101249.25
2022-09-20T15:54:13.487Z,101249.56
2022-09-20T15:57:14.903Z,101246.34
2022-09-20T16:00:18.390Z,101247.75
2022-09-20T16:03:20.535Z,101242.06
2022-09-20T16:06:23.787Z,101258.66
2022-09-20T16:09:25.358Z,101256.25
2022-09-20T16:12:27.032Z,101254.84
2022-09-20T16:15:29.926Z,101254.41
2022-09-20T16:18:50.105Z,101257.53
2022-09-20T16:21:58.652Z,101261.38
2022-09-20T16:25:01.362Z,101257.28
2022-09-20T16:28:02.903Z,101266.53
2022-09-20T16:31:04.598Z,101259.75
2022-09-20T16:34:08.796Z,101264.56
2022-09-20T16:37:15.774Z,101272.84
2022-09-20T16:40:17.559Z,101277.78
2022-09-20T16:43:23.950Z,101279.81
2022-09-20T16:46:28.975Z,101282.81
2022-09-20T16:49:34.930Z,101285.81
2022-09-20T16:52:37.695Z,101283.63
2022-09-20T16:55:44.690Z,101283.06
2022-09-20T16:58:46.408Z,101295.09
2022-09-20T17:01:49.380Z,101296.47
2022-09-20T17:04:52.059Z,101305.03
2022-09-20T17:07:55.328Z,101302.63
2022-09-20T17:11:03.283Z,101311.09
2022-09-20T17:14:05.992Z,101304.50
2022-09-20T17:17:07.529Z,101312.16
2022-09-20T17:20:09.244Z,101315.25
2022-09-20T17:23:10.839Z,101319.28
2022-09-20T17:26:14.869Z,101321.47
2022-09-20T17:29:18.283Z,101328.88
2022-09-20T17:32:20.427Z,101328.47
2022-09-20T17:35:22.486Z,101328.81
2022-09-20T17:38:24.012Z,101337.34
2022-09-20T17:41:25.705Z,101338.59
2022-09-20T17:44:27.628Z,101339.84
2022-09-20T17:47:29.212Z,101343.97
2022-09-20T17:50:31.964Z,101350.66
2022-09-20T17:53:36.028Z,101345.75
2022-09-20T17:56:37.553Z,101352.34
2022-09-20T17:59:39.107Z,101357.28
2022-09-20T18:06:23.466Z,101367.09
2022-09-20T18:09:25.770Z,101368.22
2022-09-20T18:12:27.391Z,101383.78
2022-09-20T18:15:29.023Z,101383.78
2022-09-20T18:18:35.130Z,101392.03
2022-09-20T18:21:38.744Z,101387.88
2022-09-20T18:24:40.359Z,101388.91
2022-09-20T18:27:42.286Z,101402.31
2022-09-20T18:30:46.190Z,101399.91
2022-09-20T18:33:47.804Z,101408.13
2022-09-20T18:36:55.156Z,101409.09
2022-09-20T18:40:02.137Z,101406.56
2022-09-20T18:43:07.685Z,101409.59
2022-09-20T19:24:19.000Z,101447.97
2022-09-20T19:27:23.615Z,101449.06
2022-09-20T19:30:25.580Z,101450.19
2022-09-20T19:33:36.105Z,101462.00
2022-09-20T19:37:12.219Z,101462.09
2022-09-20T19:40:35.614Z,101463.19
2022-09-20T19:44:04.377Z,101468.84
2022-09-20T19:47:18.830Z,101474.44
2022-09-20T19:50:48.617Z,101467.44
2022-09-20T19:53:50.852Z,101470.41
2022-09-20T19:56:57.758Z,101476.63
2022-09-20T19:59:59.775Z,101479.59
2022-09-20T20:03:01.811Z,101482.38
2022-09-20T20:06:17.661Z,101478.75
2022-09-20T20:09:37.633Z,101484.25
2022-09-20T20:13:33.074Z,101487.00
2022-09-20T20:16:43.402Z,101486.31
2022-09-20T20:20:02.178Z,101493.59
2022-09-20T20:23:41.226Z,101498.19
2022-09-20T20:26:45.990Z,101491.41
2022-09-20T20:29:47.635Z,101503.13
2022-09-20T20:33:10.015Z,101498.06
2022-09-20T20:36:31.976Z,101500.09
2022-09-20T20:43:02.232Z,101507.56
2022-09-20T20:46:36.467Z,101506.72
2022-09-20T20:49:52.050Z,101507.00
2022-09-20T20:52:59.563Z,101505.34
2022-09-20T20:56:07.157Z,101506.28
2022-09-20T20:59:11.107Z,101515.38
2022-09-20T21:02:12.805Z,101512.88
2022-09-20T21:05:15.279Z,101517.50
2022-09-20T21:08:16.967Z,101513.19
2022-09-20T21:11:23.414Z,101526.53
2022-09-20T21:14:25.279Z,101521.31
2022-09-20T21:17:26.998Z,101529.59
2022-09-20T21:20:31.082Z,101527.81
2022-09-20T21:23:34.034Z,101527.19
2022-09-20T21:26:39.849Z,101532.63
2022-09-20T21:29:41.572Z,101530.16
2022-09-20T21:32:43.250Z,101533.84
2022-09-20T21:35:44.918Z,101526.72
2022-09-20T21:38:46.757Z,101539.31
2022-09-20T21:41:48.920Z,101534.19
2022-09-20T21:44:58.420Z,101537.72
2022-09-20T21:48:05.465Z,101544.88
2022-09-20T21:51:15.857Z,101540.53
2022-09-20T21:55:20.089Z,101553.16
2022-09-20T21:57:49.705Z,101548.91
2022-09-20T22:01:14.724Z,101546.22
2022-09-20T22:04:17.968Z,101552.59
2022-09-20T22:08:14.120Z,101550.78
2022-09-20T22:11:26.634Z,101547.44
2022-09-20T22:14:28.509Z,101558.13
2022-09-20T22:17:30.241Z,101556.41
2022-09-20T22:20:32.819Z,101553.84
2022-09-20T22:23:37.262Z,101561.94
2022-09-20T22:26:46.654Z,101557.47
2022-09-20T22:29:48.510Z,101559.41
2022-09-20T22:32:50.209Z,101556.84
2022-09-20T22:35:51.890Z,101568.50
2022-09-20T22:38:54.310Z,101564.16
2022-09-20T22:41:56.209Z,101565.97
2022-09-20T22:44:59.552Z,101560.81
2022-09-20T22:48:01.424Z,101564.34
2022-09-20T22:51:15.077Z,101561.69
2022-09-20T22:54:16.788Z,101559.22
2022-09-20T22:57:18.512Z,101563.69
2022-09-20T23:05:39.955Z,101559.34
2022-09-20T23:08:42.132Z,101566.50
2022-09-20T23:11:44.717Z,101562.22
2022-09-20T23:14:46.414Z,101564.03
2022-09-20T23:17:48.126Z,101572.13
2022-09-20T23:25:40.154Z,101575.78
2022-09-20T23:28:44.276Z,101573.97
2022-09-20T23:31:47.759Z,101579.38
2022-09-20T23:34:49.865Z,101576.84
2022-09-20T23:37:51.453Z,101572.50
2022-09-20T23:40:54.017Z,101571.69
2022-09-20T23:44:07.371Z,101574.56
2022-09-20T23:47:09.103Z,101580.03
2022-09-20T23:50:10.747Z,101584.50
2022-09-20T23:53:12.553Z,101581.97
2022-09-20T23:56:17.304Z,101583.88
2022-09-20T23:59:19.090Z,101584.69
